createdAt,value
2023-04-16T00:00:17.647Z,3.65
2023-04-16T00:02:44.110Z,2.95
2023-04-16T00:05:10.745Z,3.50
2023-04-16T00:07:37.362Z,2.85
2023-04-16T00:10:03.825Z,3.50
2023-04-16T00:12:30.267Z,3.20
2023-04-16T00:14:56.561Z,3.35
2023-04-16T00:17:22.848Z,3.25
2023-04-16T00:19:49.129Z,2.85
2023-04-16T00:22:15.441Z,3.92
2023-04-16T00:24:42.113Z,2.88
2023-04-16T00:27:08.497Z,2.85
2023-04-16T00:29:34.910Z,3.15
2023-04-16T00:32:01.196Z,2.88
2023-04-16T00:34:27.426Z,2.72
2023-04-16T00:36:53.734Z,2.67
2023-04-16T00:39:20.049Z,2.72
2023-04-16T00:41:46.366Z,2.70
2023-04-16T00:44:12.685Z,2.72
2023-04-16T00:46:39.111Z,2.35
2023-04-16T00:49:05.505Z,2.88
2023-04-16T00:51:32.169Z,3.35
2023-04-16T00:53:58.422Z,3.00
2023-04-16T00:56:24.922Z,3.40
2023-04-16T00:58:51.411Z,3.47
2023-04-16T01:01:17.724Z,2.72
2023-04-16T01:03:45.040Z,4.07
2023-04-16T01:06:11.924Z,3.78
2023-04-16T01:08:38.392Z,3.60
2023-04-16T01:11:04.847Z,4.15
2023-04-16T01:13:31.457Z,3.65
2023-04-16T01:15:57.834Z,4.13
2023-04-16T01:18:24.752Z,4.03
2023-04-16T01:20:51.368Z,4.13
2023-04-16T01:23:21.357Z,4.63
2023-04-16T01:25:47.717Z,3.85
2023-04-16T01:28:14.011Z,3.83
2023-04-16T01:30:40.313Z,3.75
2023-04-16T01:33:07.196Z,4.07
2023-04-16T01:35:33.500Z,4.78
2023-04-16T01:37:59.818Z,4.22
2023-04-16T01:40:26.072Z,4.38
2023-04-16T01:42:52.386Z,5.35
2023-04-16T01:45:18.668Z,4.93
2023-04-16T01:47:45.025Z,4.60
2023-04-16T01:50:11.394Z,5.22
2023-04-16T01:52:37.734Z,5.30
2023-04-16T01:55:04.151Z,5.45
2023-04-16T01:57:30.824Z,5.88
2023-04-16T01:59:57.145Z,6.05
2023-04-16T02:02:28.216Z,5.72
2023-04-16T02:04:55.228Z,5.47
2023-04-16T02:07:21.626Z,5.60
2023-04-16T02:09:47.968Z,6.18
2023-04-16T02:12:14.344Z,5.93
2023-04-16T02:14:41.201Z,5.60
2023-04-16T02:17:07.525Z,7.32
2023-04-16T02:19:33.785Z,7.07
2023-04-16T02:22:01.606Z,8.13
2023-04-16T02:24:27.880Z,7.13
2023-04-16T02:26:54.684Z,7.72
2023-04-16T02:29:22.462Z,7.55
2023-04-16T02:31:49.189Z,7.82
2023-04-16T02:34:15.531Z,7.55
2023-04-16T02:36:41.830Z,7.50
2023-04-16T02:39:08.401Z,8.45
2023-04-16T02:41:34.847Z,9.10
2023-04-16T02:44:01.347Z,8.23
2023-04-16T02:46:27.658Z,8.45
2023-04-16T02:48:54.008Z,7.95
2023-04-16T02:51:20.271Z,8.65
2023-04-16T02:53:46.612Z,8.30
2023-04-16T02:56:13.059Z,7.93
2023-04-16T02:58:39.375Z,8.13
2023-04-16T03:01:05.637Z,8.45
2023-04-16T03:03:31.908Z,8.35
2023-04-16T03:05:58.188Z,9.00
2023-04-16T03:08:24.468Z,8.88
2023-04-16T03:10:50.776Z,9.75
2023-04-16T03:13:17.104Z,9.07
2023-04-16T03:15:47.888Z,9.43
2023-04-16T03:18:14.180Z,10.63
2023-04-16T03:20:40.489Z,9.60
2023-04-16T03:23:06.739Z,10.88
2023-04-16T03:25:33.077Z,11.63
2023-04-16T03:27:59.324Z,11.00
2023-04-16T03:30:25.764Z,9.35
2023-04-16T03:32:52.201Z,10.30
2023-04-16T03:35:18.708Z,10.57
2023-04-16T03:37:45.048Z,10.85
2023-04-16T03:40:11.526Z,10.82
2023-04-16T03:42:37.792Z,9.75
2023-04-16T03:45:04.281Z,10.25
2023-04-16T03:47:30.580Z,10.05
2023-04-16T03:49:56.833Z,9.63
2023-04-16T03:52:23.072Z,9.63
2023-04-16T03:54:49.358Z,9.93
2023-04-16T03:57:15.708Z,9.40
2023-04-16T03:59:42.038Z,10.07
2023-04-16T04:02:08.393Z,11.13
2023-04-16T04:04:34.871Z,9.55
2023-04-16T04:07:01.315Z,10.55
2023-04-16T04:09:27.638Z,10.75
2023-04-16T04:11:53.972Z,10.55
2023-04-16T04:14:20.378Z,11.15
2023-04-16T04:16:46.810Z,11.63
2023-04-16T04:19:13.258Z,10.07
2023-04-16T04:21:39.497Z,11.93
2023-04-16T04:24:06.027Z,11.73
2023-04-16T04:26:32.381Z,11.98
2023-04-16T04:28:58.738Z,11.57
2023-04-16T04:31:25.036Z,11.32
2023-04-16T04:33:51.325Z,12.68
2023-04-16T04:36:17.635Z,11.40
2023-04-16T04:38:43.896Z,10.93
2023-04-16T04:41:10.184Z,10.57
2023-04-16T04:43:36.580Z,11.00
2023-04-16T04:46:02.863Z,10.77
2023-04-16T04:48:29.159Z,11.77
2023-04-16T04:50:55.464Z,10.88
2023-04-16T04:53:21.805Z,11.13
2023-04-16T04:55:52.152Z,11.05
2023-04-16T04:58:20.260Z,11.00
2023-04-16T05:00:46.584Z,10.88
2023-04-16T05:03:13.055Z,11.23
2023-04-16T05:05:40.652Z,11.90
2023-04-16T05:08:07.131Z,11.90
2023-04-16T05:10:33.446Z,12.38
2023-04-16T05:12:59.677Z,11.32
2023-04-16T05:15:26.135Z,11.25
2023-04-16T05:17:52.487Z,11.50
2023-04-16T05:20:18.801Z,11.63
2023-04-16T05:22:45.270Z,11.98
2023-04-16T05:25:11.512Z,12.13
2023-04-16T05:27:38.300Z,11.98
2023-04-16T05:30:04.759Z,11.85
2023-04-16T05:32:31.157Z,11.55
2023-04-16T05:34:57.444Z,11.75
2023-04-16T05:37:23.704Z,12.32
2023-04-16T05:39:50.000Z,12.65
2023-04-16T05:42:16.317Z,11.75
2023-04-16T05:44:42.643Z,12.25
2023-04-16T05:47:09.398Z,13.82
2023-04-16T05:49:37.193Z,12.10
2023-04-16T05:52:04.218Z,11.95
2023-04-16T05:54:30.469Z,12.88
2023-04-16T05:56:56.726Z,13.30
2023-04-16T05:59:23.076Z,13.15
2023-04-16T06:01:49.376Z,12.32
2023-04-16T06:04:15.840Z,12.73
2023-04-16T06:06:42.402Z,11.82
2023-04-16T06:09:08.967Z,11.90
2023-04-16T06:11:36.406Z,11.93
2023-04-16T06:14:02.846Z,12.73
2023-04-16T06:16:29.184Z,11.68
2023-04-16T06:18:55.671Z,12.57
2023-04-16T06:21:22.144Z,12.50
2023-04-16T06:23:48.479Z,12.75
2023-04-16T06:26:14.719Z,12.43
2023-04-16T06:28:40.931Z,13.23
2023-04-16T06:31:07.206Z,12.68
2023-04-16T06:33:33.495Z,13.93
2023-04-16T06:35:59.736Z,14.52
2023-04-16T06:38:25.961Z,15.43
2023-04-16T06:40:52.280Z,14.65
2023-04-16T06:43:18.607Z,14.60
2023-04-16T06:45:44.888Z,14.95
2023-04-16T06:48:11.144Z,15.00
2023-04-16T06:50:37.692Z,14.65
2023-04-16T06:53:03.959Z,15.63
2023-04-16T06:55:30.307Z,15.88
2023-04-16T06:57:56.796Z,14.77
2023-04-16T07:00:23.027Z,15.18
2023-04-16T07:02:49.510Z,15.25
2023-04-16T07:05:16.066Z,14.13
2023-04-16T07:07:42.396Z,14.43
2023-04-16T07:10:08.851Z,14.07
2023-04-16T07:12:35.306Z,14.13
2023-04-16T07:15:01.605Z,14.02
2023-04-16T07:17:28.002Z,14.77
2023-04-16T07:19:54.285Z,17.42
2023-04-16T07:22:20.664Z,18.30
2023-04-16T07:24:46.998Z,17.90
2023-04-16T07:27:13.406Z,17.40
2023-04-16T07:29:39.878Z,15.75
2023-04-16T07:32:06.326Z,16.02
2023-04-16T07:34:32.674Z,16.10
2023-04-16T07:36:59.055Z,16.08
2023-04-16T07:39:25.332Z,15.15
2023-04-16T07:41:51.646Z,13.57
2023-04-16T07:44:17.992Z,14.02
2023-04-16T07:46:47.325Z,12.95
2023-04-16T07:49:14.168Z,13.40
2023-04-16T07:51:40.529Z,12.85
2023-04-16T07:54:06.885Z,13.02
2023-04-16T07:56:33.177Z,12.73
2023-04-16T07:59:14.484Z,13.68
2023-04-16T08:01:46.008Z,15.38
2023-04-16T08:04:12.410Z,13.40
2023-04-16T08:06:38.894Z,12.70
2023-04-16T08:09:05.216Z,13.25
2023-04-16T08:11:31.516Z,12.30
2023-04-16T08:13:57.812Z,13.05
2023-04-16T08:16:24.263Z,12.60
2023-04-16T08:18:50.857Z,12.93
2023-04-16T08:21:17.112Z,12.45
2023-04-16T08:23:43.403Z,11.55
2023-04-16T08:26:09.688Z,11.85
2023-04-16T08:28:35.914Z,10.88
2023-04-16T08:31:02.247Z,10.20
2023-04-16T08:33:28.615Z,9.82
2023-04-16T08:35:54.943Z,9.75
2023-04-16T08:38:21.187Z,9.90
2023-04-16T08:40:47.662Z,9.43
2023-04-16T08:43:14.784Z,8.73
2023-04-16T08:45:42.749Z,9.77
2023-04-16T08:48:11.305Z,9.02
2023-04-16T08:50:37.587Z,9.40
2023-04-16T08:53:06.134Z,9.18
2023-04-16T08:55:36.415Z,8.35
2023-04-16T08:58:04.148Z,8.55
2023-04-16T09:00:31.535Z,7.78
2023-04-16T09:02:58.186Z,8.18
2023-04-16T09:05:26.238Z,7.22
2023-04-16T09:07:52.927Z,6.65
2023-04-16T09:10:19.806Z,7.00
2023-04-16T09:12:46.172Z,7.15
2023-04-16T09:15:13.063Z,7.40
2023-04-16T09:17:40.054Z,7.63
2023-04-16T09:20:08.704Z,7.05
2023-04-16T09:22:35.754Z,7.40
2023-04-16T09:25:02.025Z,6.82
2023-04-16T09:27:28.323Z,6.07
2023-04-16T09:29:54.595Z,7.32
2023-04-16T09:32:24.940Z,6.70
2023-04-16T09:34:58.138Z,5.72
2023-04-16T09:37:25.518Z,6.57
2023-04-16T09:39:57.951Z,7.20
2023-04-16T09:42:25.211Z,7.38
2023-04-16T09:44:52.385Z,6.53
2023-04-16T09:47:18.867Z,6.90
2023-04-16T09:49:45.347Z,6.38
2023-04-16T09:52:18.642Z,6.82
2023-04-16T09:54:51.557Z,6.97
2023-04-16T09:57:21.932Z,6.63
2023-04-16T09:59:49.141Z,6.65
2023-04-16T10:02:16.590Z,6.25
2023-04-16T10:04:46.297Z,7.28
2023-04-16T10:07:13.279Z,6.75
2023-04-16T10:09:39.769Z,8.27
2023-04-16T10:12:06.804Z,7.65
2023-04-16T10:14:33.921Z,7.68
2023-04-16T10:17:00.723Z,7.53
2023-04-16T10:19:27.320Z,7.60
2023-04-16T10:21:54.672Z,6.90
2023-04-16T10:24:21.033Z,8.57
2023-04-16T10:26:47.549Z,7.90
2023-04-16T10:29:13.831Z,7.80
2023-04-16T10:31:40.421Z,8.65
2023-04-16T10:34:07.680Z,9.10
2023-04-16T10:36:36.865Z,9.30
2023-04-16T10:39:03.191Z,11.20
2023-04-16T10:41:32.112Z,10.52
2023-04-16T10:44:11.257Z,10.63
2023-04-16T10:46:41.824Z,9.45
2023-04-16T10:51:35.880Z,10.45
2023-04-16T10:54:19.704Z,10.25
2023-04-16T10:56:46.833Z,9.00
2023-04-16T10:59:13.674Z,9.52
2023-04-16T11:01:43.463Z,9.23
2023-04-16T11:04:22.470Z,9.83
2023-04-16T11:07:09.141Z,10.82
2023-04-16T11:09:49.628Z,9.68
2023-04-16T11:12:37.295Z,9.85
2023-04-16T11:15:05.518Z,10.60
2023-04-16T11:17:37.778Z,12.07
2023-04-16T11:20:19.089Z,11.27
2023-04-16T11:22:46.977Z,11.35
2023-04-16T11:25:13.311Z,12.43
2023-04-16T11:27:39.578Z,11.57
2023-04-16T11:30:08.201Z,11.55
2023-04-16T11:32:35.101Z,11.60
2023-04-16T11:35:04.365Z,11.68
2023-04-16T11:37:34.705Z,11.63
2023-04-16T11:40:01.548Z,10.10
2023-04-16T11:42:28.510Z,11.35
2023-04-16T11:44:56.089Z,10.57
2023-04-16T11:47:25.485Z,11.48
2023-04-16T11:49:51.973Z,11.52
2023-04-16T11:52:33.766Z,10.77
2023-04-16T11:55:00.140Z,11.88
2023-04-16T11:57:27.504Z,12.63
2023-04-16T12:00:02.473Z,12.27
2023-04-16T12:02:36.477Z,11.23
2023-04-16T12:05:03.774Z,11.45
2023-04-16T12:07:30.230Z,11.32
2023-04-16T12:10:07.315Z,11.43
2023-04-16T12:12:34.862Z,11.82
2023-04-16T12:15:05.402Z,11.90
2023-04-16T12:19:59.246Z,11.23
2023-04-16T12:22:36.481Z,9.70
2023-04-16T12:25:07.065Z,10.77
2023-04-16T12:27:47.074Z,10.45
2023-04-16T12:30:14.287Z,10.32
2023-04-16T12:32:41.726Z,10.02
2023-04-16T12:35:09.145Z,10.45
2023-04-16T12:37:35.886Z,8.93
2023-04-16T12:40:02.305Z,10.23
2023-04-16T12:42:34.910Z,10.63
2023-04-16T12:45:02.104Z,10.23
2023-04-16T12:47:28.434Z,9.40
2023-04-16T12:49:55.768Z,10.02
2023-04-16T12:52:23.818Z,9.60
2023-04-16T12:54:50.427Z,9.98
2023-04-16T12:57:16.792Z,9.43
2023-04-16T12:59:43.020Z,10.30
2023-04-16T13:02:09.369Z,9.43
2023-04-16T13:04:36.170Z,9.73
2023-04-16T13:07:02.499Z,9.82
2023-04-16T13:09:28.817Z,9.43
2023-04-16T13:11:55.118Z,10.27
2023-04-16T13:14:21.564Z,10.57
2023-04-16T13:16:47.847Z,10.98
2023-04-16T13:19:15.809Z,9.95
2023-04-16T13:21:42.113Z,10.65
2023-04-16T13:24:08.386Z,11.23
2023-04-16T13:26:34.639Z,11.63
2023-04-16T13:29:01.042Z,12.27
2023-04-16T13:31:27.432Z,12.07
2023-04-16T13:33:53.796Z,12.13
2023-04-16T13:36:20.222Z,12.55
2023-04-16T13:38:46.500Z,12.90
2023-04-16T13:41:13.012Z,13.93
2023-04-16T13:43:39.314Z,13.35
2023-04-16T13:46:05.794Z,13.55
2023-04-16T13:48:32.744Z,12.65
2023-04-16T13:50:59.001Z,13.07
2023-04-16T13:53:25.353Z,13.48
2023-04-16T13:55:51.793Z,13.00
2023-04-16T13:58:18.165Z,13.13
2023-04-16T14:00:44.502Z,12.73
2023-04-16T14:03:11.105Z,12.55
2023-04-16T14:05:37.436Z,13.15
2023-04-16T14:08:03.782Z,11.98
2023-04-16T14:10:30.708Z,12.05
2023-04-16T14:12:57.378Z,11.18
2023-04-16T14:15:26.251Z,10.73
2023-04-16T14:17:52.609Z,10.43
2023-04-16T14:20:19.030Z,11.13
2023-04-16T14:22:46.590Z,11.18
2023-04-16T14:25:12.891Z,11.02
2023-04-16T14:27:39.161Z,10.63
2023-04-16T14:30:06.305Z,10.30
2023-04-16T14:32:32.661Z,10.27
2023-04-16T14:34:59.003Z,9.73
2023-04-16T14:37:26.196Z,9.50
2023-04-16T14:39:52.436Z,10.52
2023-04-16T14:42:18.769Z,10.35
2023-04-16T14:44:46.212Z,9.80
2023-04-16T14:47:12.602Z,9.88
2023-04-16T14:49:38.903Z,10.82
2023-04-16T14:52:05.795Z,10.05
2023-04-16T14:54:33.083Z,9.80
2023-04-16T14:56:59.475Z,9.88
2023-04-16T14:59:25.789Z,10.65
2023-04-16T15:01:52.477Z,9.07
2023-04-16T15:04:19.006Z,10.25
2023-04-16T15:06:46.547Z,9.75
2023-04-16T15:09:13.183Z,10.43
2023-04-16T15:11:39.626Z,10.07
2023-04-16T15:14:06.883Z,9.40
2023-04-16T15:16:33.257Z,9.50
2023-04-16T15:18:59.561Z,9.35
2023-04-16T15:21:26.690Z,9.13
2023-04-16T15:23:53.731Z,10.15
2023-04-16T15:26:20.105Z,10.15
2023-04-16T15:28:46.397Z,10.20
2023-04-16T15:31:12.726Z,10.63
2023-04-16T15:33:39.116Z,11.07
2023-04-16T15:36:05.556Z,10.73
2023-04-16T15:38:31.871Z,10.07
2023-04-16T15:40:58.616Z,10.02
2023-04-16T15:43:26.750Z,9.88
2023-04-16T15:45:53.073Z,11.07
2023-04-16T15:48:19.296Z,11.45
2023-04-16T15:50:45.743Z,10.93
2023-04-16T15:53:12.835Z,11.95
2023-04-16T15:55:39.150Z,11.13
2023-04-16T15:58:05.560Z,12.02
2023-04-16T16:00:32.022Z,10.90
2023-04-16T16:02:58.482Z,10.70
2023-04-16T16:05:24.955Z,11.55
2023-04-16T16:07:51.416Z,11.70
2023-04-16T16:10:17.732Z,12.20
2023-04-16T16:12:43.990Z,10.93
2023-04-16T16:15:10.936Z,11.93
2023-04-16T16:17:37.278Z,11.52
2023-04-16T16:20:04.357Z,11.85
2023-04-16T16:22:30.653Z,12.48
2023-04-16T16:24:57.793Z,12.52
2023-04-16T16:27:24.381Z,11.85
2023-04-16T16:29:50.675Z,11.95
2023-04-16T16:32:16.972Z,11.52
2023-04-16T16:34:43.316Z,11.35
2023-04-16T16:37:09.577Z,13.02
2023-04-16T16:39:38.370Z,12.95
2023-04-16T16:42:05.115Z,14.02
2023-04-16T16:44:31.353Z,13.60
2023-04-16T16:46:57.727Z,12.85
2023-04-16T16:49:24.041Z,13.25
2023-04-16T16:51:50.457Z,13.30
2023-04-16T16:54:16.725Z,13.05
2023-04-16T16:56:43.001Z,13.43
2023-04-16T16:59:09.382Z,12.55
2023-04-16T17:01:36.159Z,11.63
2023-04-16T17:04:02.609Z,12.90
2023-04-16T17:06:29.080Z,14.25
2023-04-16T17:08:55.777Z,13.20
2023-04-16T17:11:22.012Z,14.07
2023-04-16T17:13:48.308Z,13.13
2023-04-16T17:16:16.617Z,12.88
2023-04-16T17:18:42.905Z,13.85
2023-04-16T17:21:09.163Z,14.70
2023-04-16T17:23:35.438Z,14.07
2023-04-16T17:26:01.781Z,14.25
2023-04-16T17:28:28.111Z,13.50
2023-04-16T17:30:56.072Z,13.43
2023-04-16T17:33:22.431Z,14.43
2023-04-16T17:35:48.739Z,14.45
2023-04-16T17:38:14.996Z,14.10
2023-04-16T17:40:41.511Z,13.18
2023-04-16T17:43:07.846Z,14.13
2023-04-16T17:45:34.166Z,14.45
2023-04-16T17:48:01.007Z,14.52
2023-04-16T17:50:27.433Z,13.63
2023-04-16T17:52:53.673Z,14.10
2023-04-16T17:55:19.961Z,13.95
2023-04-16T17:57:46.275Z,13.48
2023-04-16T18:00:12.679Z,13.52
2023-04-16T18:02:40.676Z,12.25
2023-04-16T18:05:07.628Z,12.73
2023-04-16T18:07:35.417Z,13.82
2023-04-16T18:10:01.699Z,12.95
2023-04-16T18:12:27.969Z,14.68
2023-04-16T18:14:54.236Z,13.80
2023-04-16T18:17:22.628Z,13.35
2023-04-16T18:19:48.965Z,13.18
2023-04-16T18:22:15.267Z,14.07
2023-04-16T18:24:41.705Z,13.75
2023-04-16T18:27:07.990Z,14.32
2023-04-16T18:29:34.255Z,14.07
2023-04-16T18:32:03.761Z,13.18
2023-04-16T18:34:31.382Z,14.88
2023-04-16T18:36:57.795Z,14.27
2023-04-16T18:39:24.374Z,15.70
2023-04-16T18:41:50.794Z,14.60
2023-04-16T18:44:17.683Z,15.63
2023-04-16T18:46:44.238Z,16.50
2023-04-16T18:49:10.831Z,16.30
2023-04-16T18:51:37.277Z,16.23
2023-04-16T18:54:03.605Z,17.05
2023-04-16T18:56:31.031Z,16.30
2023-04-16T18:58:57.286Z,17.27
2023-04-16T19:01:23.677Z,18.52
2023-04-16T19:03:50.131Z,18.67
2023-04-16T19:06:16.433Z,18.55
2023-04-16T19:08:42.846Z,18.65
2023-04-16T19:11:09.134Z,18.35
2023-04-16T19:13:35.575Z,17.98
2023-04-16T19:16:02.288Z,18.48
2023-04-16T19:18:28.779Z,17.90
2023-04-16T19:21:01.432Z,17.55
2023-04-16T19:23:28.111Z,18.80
2023-04-16T19:25:56.253Z,18.13
2023-04-16T19:28:23.278Z,18.30
2023-04-16T19:30:50.177Z,19.38
2023-04-16T19:33:16.481Z,18.15
2023-04-16T19:35:43.169Z,18.80
2023-04-16T19:38:10.831Z,17.25
2023-04-16T19:40:37.874Z,18.58
2023-04-16T19:43:04.157Z,19.65
2023-04-16T19:45:30.749Z,18.40
2023-04-16T19:47:57.118Z,17.65
2023-04-16T19:50:23.786Z,18.67
2023-04-16T19:52:50.096Z,18.25
2023-04-16T19:55:16.566Z,18.42
2023-04-16T19:57:42.853Z,19.27
2023-04-16T20:00:11.200Z,19.58
2023-04-16T20:02:37.758Z,19.50
2023-04-16T20:05:04.397Z,19.42
2023-04-16T20:07:30.655Z,19.10
2023-04-16T20:09:56.954Z,18.73
2023-04-16T20:12:23.213Z,19.67
2023-04-16T20:14:49.597Z,19.92
2023-04-16T20:17:17.755Z,19.88
2023-04-16T20:19:47.364Z,21.23
2023-04-16T20:22:14.822Z,21.67
2023-04-16T20:24:41.533Z,21.33
2023-04-16T20:27:07.816Z,21.50
2023-04-16T20:29:34.048Z,21.15
2023-04-16T20:32:00.462Z,19.80
2023-04-16T20:34:27.730Z,21.15
2023-04-16T20:36:54.860Z,22.10
2023-04-16T20:39:22.087Z,21.85
2023-04-16T20:41:56.489Z,20.50
2023-04-16T20:44:26.116Z,21.70
2023-04-16T20:46:54.664Z,22.67
2023-04-16T20:49:21.024Z,20.85
2023-04-16T20:51:47.296Z,22.45
2023-04-16T20:54:13.605Z,23.52
2023-04-16T20:56:39.993Z,23.58
2023-04-16T20:59:06.553Z,23.90
2023-04-16T21:01:33.126Z,23.77
2023-04-16T21:03:59.516Z,22.15
2023-04-16T21:06:25.965Z,22.67
2023-04-16T21:08:52.230Z,21.40
2023-04-16T21:11:18.472Z,21.48
2023-04-16T21:13:44.795Z,22.45
2023-04-16T21:16:12.274Z,23.63
2023-04-16T21:18:38.604Z,23.02
2023-04-16T21:21:04.944Z,22.67
2023-04-16T21:23:31.429Z,25.00
2023-04-16T21:25:57.668Z,23.70
2023-04-16T21:28:23.992Z,24.50
2023-04-16T21:30:53.224Z,24.25
2023-04-16T21:33:19.528Z,24.10
2023-04-16T21:35:50.767Z,24.05
2023-04-16T21:38:17.052Z,24.45
2023-04-16T21:40:43.347Z,20.77
2023-04-16T21:43:09.598Z,21.13
2023-04-16T21:45:35.849Z,20.25
2023-04-16T21:48:02.247Z,20.73
2023-04-16T21:50:28.599Z,20.35
2023-04-16T21:52:54.891Z,19.77
2023-04-16T21:55:21.151Z,20.65
2023-04-16T21:57:47.434Z,21.45
2023-04-16T22:00:14.362Z,20.35
2023-04-16T22:02:41.788Z,21.95
2023-04-16T22:05:09.052Z,20.23
2023-04-16T22:07:36.608Z,21.17
2023-04-16T22:10:03.489Z,20.50
2023-04-16T22:12:30.105Z,20.60
2023-04-16T22:15:02.407Z,20.35
2023-04-16T22:17:30.087Z,21.17
2023-04-16T22:19:57.285Z,20.65
2023-04-16T22:22:23.621Z,21.38
2023-04-16T22:24:49.926Z,21.77
2023-04-16T22:27:16.263Z,23.02
2023-04-16T22:29:42.649Z,21.90
2023-04-16T22:32:09.005Z,21.83
2023-04-16T22:34:35.473Z,22.92
2023-04-16T22:37:02.963Z,21.52
2023-04-16T22:39:29.668Z,24.38
2023-04-16T22:41:56.031Z,23.80
2023-04-16T22:44:22.458Z,22.92
2023-04-16T22:46:48.805Z,22.92
2023-04-16T22:49:15.129Z,23.75
2023-04-16T22:51:41.418Z,22.33
2023-04-16T22:54:09.096Z,25.10
2023-04-16T22:56:35.625Z,24.10
2023-04-16T22:59:01.931Z,23.73
2023-04-16T23:01:28.234Z,23.05
2023-04-16T23:03:54.585Z,24.23
2023-04-16T23:06:21.922Z,24.25
2023-04-16T23:08:48.283Z,24.33
2023-04-16T23:11:14.585Z,25.05
2023-04-16T23:13:42.588Z,26.02
2023-04-16T23:16:09.009Z,26.50
2023-04-16T23:18:36.587Z,26.35
2023-04-16T23:21:02.897Z,26.50
2023-04-16T23:23:29.218Z,26.10
2023-04-16T23:25:55.536Z,25.40
2023-04-16T23:28:22.265Z,24.67
2023-04-16T23:30:52.631Z,26.30
2023-04-16T23:33:18.988Z,24.85
2023-04-16T23:35:46.440Z,25.02
2023-04-16T23:38:12.790Z,25.73
2023-04-16T23:40:39.066Z,26.83
2023-04-16T23:43:05.595Z,28.10
2023-04-16T23:45:31.964Z,26.08
2023-04-16T23:47:58.347Z,27.25
2023-04-16T23:50:24.690Z,28.25
2023-04-16T23:52:50.986Z,28.92
2023-04-16T23:55:17.236Z,27.15
2023-04-16T23:57:43.464Z,28.90
